createdAt,value
2019-03-04T00:00:50.771Z,99059.33
2019-03-04T00:03:18.750Z,99054.11
2019-03-04T00:05:46.750Z,99049.23
2019-03-04T00:08:19.452Z,99052.69
2019-03-04T00:10:47.505Z,99052.69
2019-03-04T00:13:15.275Z,99048.64
2019-03-04T00:15:43.302Z,99048.64
2019-03-04T00:18:11.286Z,99047.28
2019-03-04T00:20:39.473Z,99042.67
2019-03-04T00:23:07.247Z,99034.11
2019-03-04T00:25:35.200Z,99028.95
2019-03-04T00:28:03.182Z,99029.41
2019-03-04T00:30:31.216Z,99023.81
2019-03-04T00:32:58.954Z,99017.55
2019-03-04T00:35:27.079Z,99010.42
2019-03-04T00:37:54.940Z,99003.67
2019-03-04T00:40:22.884Z,99003.61
2019-03-04T00:42:51.734Z,99010.00
2019-03-04T00:45:19.700Z,99005.03
2019-03-04T00:47:47.553Z,99009.71
2019-03-04T00:50:16.601Z,99002.97
2019-03-04T00:52:44.450Z,98997.38
2019-03-04T00:55:13.276Z,98999.09
2019-03-04T00:57:41.156Z,98995.99
2019-03-04T01:00:20.322Z,98989.63
2019-03-04T01:02:48.244Z,98979.23
2019-03-04T01:05:16.755Z,98977.39
2019-03-04T01:07:44.729Z,98968.12
2019-03-04T01:10:23.422Z,98961.19
2019-03-04T01:12:52.121Z,98942.62
2019-03-04T01:15:22.562Z,98952.64
2019-03-04T01:17:50.545Z,98953.00
2019-03-04T01:20:18.659Z,98947.34
2019-03-04T01:22:46.751Z,98943.02
2019-03-04T01:25:16.283Z,98940.13
2019-03-04T01:27:44.145Z,98929.50
2019-03-04T01:30:17.150Z,98928.53
2019-03-04T01:32:45.098Z,98918.11
2019-03-04T01:35:13.130Z,98915.30
2019-03-04T01:37:41.117Z,98914.53
2019-03-04T01:40:11.845Z,98914.05
2019-03-04T01:42:40.495Z,98914.53
2019-03-04T01:45:09.308Z,98913.17
2019-03-04T01:47:37.137Z,98915.17
2019-03-04T01:50:05.679Z,98917.91
2019-03-04T01:52:33.617Z,98920.31
2019-03-04T01:55:01.523Z,98911.37
2019-03-04T01:57:29.290Z,98911.29
2019-03-04T01:59:57.580Z,98907.32
2019-03-04T02:02:25.400Z,98903.34
2019-03-04T02:04:53.472Z,98898.42
2019-03-04T02:07:21.276Z,98901.27
2019-03-04T02:09:49.242Z,98894.24
2019-03-04T02:12:19.858Z,98899.49
2019-03-04T02:14:47.736Z,98915.70
2019-03-04T02:17:15.569Z,98904.02
2019-03-04T02:19:43.687Z,98903.10
2019-03-04T02:22:11.741Z,98897.17
2019-03-04T02:24:39.510Z,98896.16
2019-03-04T02:27:07.526Z,98915.19
2019-03-04T02:29:35.377Z,98890.34
2019-03-04T02:32:03.434Z,98904.98
2019-03-04T02:34:31.320Z,98899.64
2019-03-04T02:36:59.173Z,98905.13
2019-03-04T02:39:27.036Z,98918.50
2019-03-04T02:41:54.885Z,98902.13
2019-03-04T02:44:22.677Z,98894.66
2019-03-04T02:46:50.511Z,98886.91
2019-03-04T02:49:18.268Z,98881.83
2019-03-04T02:51:46.205Z,98889.29
2019-03-04T02:54:14.064Z,98862.38
2019-03-04T02:56:41.907Z,98864.54
2019-03-04T02:59:09.991Z,98855.70
2019-03-04T03:01:37.942Z,98858.78
2019-03-04T03:04:05.913Z,98843.66
2019-03-04T03:06:33.920Z,98846.03
2019-03-04T03:09:01.879Z,98838.98
2019-03-04T03:11:30.178Z,98835.53
2019-03-04T03:13:58.070Z,98837.06
2019-03-04T03:16:25.838Z,98826.84
2019-03-04T03:18:53.685Z,98825.44
2019-03-04T03:21:21.482Z,98827.77
2019-03-04T03:23:49.315Z,98821.55
2019-03-04T03:26:17.068Z,98819.31
2019-03-04T03:28:46.170Z,98811.12
2019-03-04T03:31:13.915Z,98809.52
2019-03-04T03:33:42.042Z,98807.83
2019-03-04T03:36:09.839Z,98805.67
2019-03-04T03:38:37.736Z,98810.41
2019-03-04T03:41:05.628Z,98806.95
2019-03-04T03:43:33.577Z,98815.53
2019-03-04T03:46:03.229Z,98809.69
2019-03-04T03:48:31.150Z,98809.48
2019-03-04T03:50:59.037Z,98826.40
2019-03-04T03:53:26.857Z,98827.41
2019-03-04T03:55:54.805Z,98834.18
2019-03-04T03:58:24.968Z,98842.36
2019-03-04T04:00:52.499Z,98812.97
2019-03-04T04:03:20.601Z,98804.95
2019-03-04T04:05:48.554Z,98804.67
2019-03-04T04:08:16.418Z,98801.66
2019-03-04T04:10:44.280Z,98807.04
2019-03-04T04:13:12.101Z,98819.46
2019-03-04T04:15:40.382Z,98810.20
2019-03-04T04:18:08.296Z,98810.48
2019-03-04T04:20:36.192Z,98810.25
2019-03-04T04:23:04.143Z,98815.09
2019-03-04T04:25:31.932Z,98814.61
2019-03-04T04:27:59.751Z,98813.97
2019-03-04T04:30:28.649Z,98820.47
2019-03-04T04:32:56.621Z,98823.35
2019-03-04T04:35:24.474Z,98817.86
2019-03-04T04:37:52.307Z,98812.58
2019-03-04T04:40:20.190Z,98801.39
2019-03-04T04:42:48.038Z,98811.20
2019-03-04T04:45:15.912Z,98812.66
2019-03-04T04:47:45.391Z,98812.17
2019-03-04T04:50:13.728Z,98810.80
2019-03-04T04:52:41.778Z,98796.66
2019-03-04T04:55:09.815Z,98778.95
2019-03-04T04:57:37.605Z,98774.70
2019-03-04T05:00:09.217Z,98773.30
2019-03-04T05:02:37.009Z,98775.73
2019-03-04T05:05:05.517Z,98791.41
2019-03-04T05:07:33.280Z,98801.98
2019-03-04T05:10:01.205Z,98808.63
2019-03-04T05:12:29.287Z,98796.70
2019-03-04T05:14:57.118Z,98791.28
2019-03-04T05:17:24.981Z,98789.67
2019-03-04T05:19:52.859Z,98782.55
2019-03-04T05:22:20.692Z,98775.25
2019-03-04T05:24:48.534Z,98776.61
2019-03-04T05:27:16.410Z,98774.85
2019-03-04T05:29:45.923Z,98773.33
2019-03-04T05:32:13.907Z,98766.48
2019-03-04T05:34:41.741Z,98743.97
2019-03-04T05:37:09.721Z,98730.39
2019-03-04T05:39:37.530Z,98729.98
2019-03-04T05:42:05.416Z,98724.73
2019-03-04T05:44:33.234Z,98722.91
2019-03-04T05:47:01.028Z,98717.92
2019-03-04T05:49:28.834Z,98725.05
2019-03-04T05:51:56.618Z,98721.77
2019-03-04T05:54:24.439Z,98719.56
2019-03-04T05:56:52.712Z,98731.47
2019-03-04T05:59:20.623Z,98713.97
2019-03-04T06:02:00.367Z,98722.38
2019-03-04T06:04:28.247Z,98719.57
2019-03-04T06:07:00.818Z,98724.86
2019-03-04T06:09:28.867Z,98724.98
2019-03-04T06:11:56.836Z,98720.25
2019-03-04T06:14:24.838Z,98720.17
2019-03-04T06:16:52.713Z,98714.89
2019-03-04T06:19:21.256Z,98709.11
2019-03-04T06:21:50.223Z,98693.89
2019-03-04T06:24:18.057Z,98688.73
2019-03-04T06:26:45.933Z,98681.76
2019-03-04T06:29:13.894Z,98689.69
2019-03-04T06:31:41.901Z,98679.38
2019-03-04T06:34:09.859Z,98669.12
2019-03-04T06:36:37.877Z,98654.38
2019-03-04T06:39:07.181Z,98654.97
2019-03-04T06:41:35.374Z,98647.87
2019-03-04T06:44:04.308Z,98643.60
2019-03-04T06:46:32.146Z,98666.50
2019-03-04T06:48:59.915Z,98674.98
2019-03-04T06:51:33.851Z,98658.73
2019-03-04T06:54:52.224Z,98656.51
2019-03-04T06:57:44.640Z,98643.23
2019-03-04T07:00:27.130Z,98649.60
2019-03-04T07:02:55.114Z,98646.64
2019-03-04T07:05:51.286Z,98648.42
2019-03-04T07:09:00.772Z,98638.27
2019-03-04T07:11:29.615Z,98639.47
2019-03-04T07:13:57.563Z,98642.17
2019-03-04T07:16:25.590Z,98648.35
2019-03-04T07:18:53.475Z,98646.55
2019-03-04T07:21:21.570Z,98630.59
2019-03-04T07:24:02.444Z,98634.92
2019-03-04T07:26:30.242Z,98620.53
2019-03-04T07:28:58.113Z,98615.94
2019-03-04T07:31:26.154Z,98617.84
2019-03-04T07:33:54.046Z,98600.59
2019-03-04T07:36:22.075Z,98598.03
2019-03-04T07:38:58.269Z,98602.38
2019-03-04T07:41:30.570Z,98589.23
2019-03-04T07:43:58.561Z,98587.27
2019-03-04T07:46:26.496Z,98581.59
2019-03-04T07:48:54.435Z,98572.59
2019-03-04T07:51:22.308Z,98576.05
2019-03-04T07:53:50.150Z,98577.20
2019-03-04T07:56:18.011Z,98579.95
2019-03-04T07:58:45.982Z,98577.56
2019-03-04T08:01:13.791Z,98569.55
2019-03-04T08:03:41.820Z,98571.95
2019-03-04T08:06:09.794Z,98563.34
2019-03-04T08:08:42.995Z,98560.83
2019-03-04T08:11:55.734Z,98559.42
2019-03-04T08:14:23.534Z,98550.88
2019-03-04T08:16:51.280Z,98541.85
2019-03-04T08:19:19.197Z,98534.72
2019-03-04T08:21:47.151Z,98519.53
2019-03-04T08:24:15.008Z,98504.15
2019-03-04T08:26:42.869Z,98504.15
2019-03-04T08:29:14.091Z,98494.95
2019-03-04T08:31:41.960Z,98494.95
2019-03-04T08:34:09.809Z,98490.35
2019-03-04T08:36:37.667Z,98487.41
2019-03-04T08:39:07.932Z,98489.34
2019-03-04T08:41:35.730Z,98490.66
2019-03-04T08:44:04.687Z,98497.71
2019-03-04T08:46:32.471Z,98506.62
2019-03-04T08:49:00.850Z,98490.67
2019-03-04T08:51:28.730Z,98508.65
2019-03-04T08:53:56.589Z,98508.84
2019-03-04T08:56:24.581Z,98483.69
2019-03-04T08:58:52.915Z,98487.83
2019-03-04T09:01:20.788Z,98492.73
2019-03-04T09:03:48.705Z,98477.27
2019-03-04T09:06:16.672Z,98479.27
2019-03-04T09:08:44.502Z,98480.06
2019-03-04T09:11:12.685Z,98480.06
2019-03-04T09:13:42.316Z,98457.62
2019-03-04T09:16:10.190Z,98467.58
2019-03-04T09:18:38.191Z,98467.58
2019-03-04T09:21:06.771Z,98453.41
2019-03-04T09:23:34.625Z,98458.23
2019-03-04T09:26:05.515Z,98453.73
2019-03-04T09:28:34.081Z,98455.13
2019-03-04T09:31:02.161Z,98448.12
2019-03-04T09:33:29.949Z,98425.40
2019-03-04T09:35:58.009Z,98425.40
2019-03-04T09:38:25.879Z,98425.52
2019-03-04T09:40:53.795Z,98408.80
2019-03-04T09:43:21.798Z,98397.83
2019-03-04T09:45:49.854Z,98401.39
2019-03-04T09:48:17.619Z,98386.34
2019-03-04T09:50:47.200Z,98399.77
2019-03-04T09:53:15.072Z,98386.63
2019-03-04T09:55:43.002Z,98373.84
2019-03-04T09:58:11.211Z,98357.75
2019-03-04T10:00:47.496Z,98361.45
2019-03-04T10:03:47.992Z,98361.30
2019-03-04T10:06:32.884Z,98365.83
2019-03-04T10:09:57.876Z,98358.42
2019-03-04T10:12:38.496Z,98358.42
2019-03-04T10:15:25.283Z,98329.30
2019-03-04T10:18:01.864Z,98329.30
2019-03-04T10:20:58.111Z,98337.55
2019-03-04T10:24:06.322Z,98337.84
2019-03-04T10:27:21.579Z,98343.52
2019-03-04T10:30:24.642Z,98361.39
2019-03-04T10:33:13.388Z,98336.34
2019-03-04T10:36:12.380Z,98336.34
2019-03-04T10:39:22.097Z,98347.89
2019-03-04T10:42:29.443Z,98339.44
2019-03-04T10:45:18.222Z,98312.48
2019-03-04T10:47:46.318Z,98295.05
2019-03-04T10:50:14.857Z,98297.04
2019-03-04T10:52:42.947Z,98291.33
2019-03-04T10:55:11.245Z,98269.93
2019-03-04T10:57:39.249Z,98267.11
2019-03-04T11:00:16.967Z,98269.53
2019-03-04T11:02:45.731Z,98260.57
2019-03-04T11:05:13.892Z,98260.57
2019-03-04T11:07:41.892Z,98256.86
2019-03-04T11:10:10.013Z,98256.86
2019-03-04T11:12:37.872Z,98238.90
2019-03-04T11:15:17.398Z,98245.28
2019-03-04T11:17:45.286Z,98239.70
2019-03-04T11:20:13.208Z,98239.70
2019-03-04T11:22:41.286Z,98250.87
2019-03-04T11:25:09.405Z,98244.03
2019-03-04T11:27:37.387Z,98243.99
2019-03-04T11:30:05.713Z,98230.23
2019-03-04T11:32:33.514Z,98241.95
2019-03-04T11:35:01.325Z,98269.77
2019-03-04T11:37:29.298Z,98267.43
2019-03-04T11:40:02.160Z,98255.80
2019-03-04T11:42:30.095Z,98244.62
2019-03-04T11:44:58.020Z,98237.99
2019-03-04T11:47:26.652Z,98237.99
2019-03-04T11:49:54.567Z,98234.73
2019-03-04T11:52:23.294Z,98219.30
2019-03-04T11:54:51.343Z,98219.30
2019-03-04T11:57:19.095Z,98214.13
2019-03-04T11:59:46.978Z,98231.02
2019-03-04T12:02:19.629Z,98209.25
2019-03-04T12:04:48.347Z,98209.25
2019-03-04T12:07:16.403Z,98204.09
2019-03-04T12:09:44.258Z,98201.63
2019-03-04T12:12:12.570Z,98199.91
2019-03-04T12:14:40.405Z,98204.83
2019-03-04T12:17:08.361Z,98181.75
2019-03-04T12:19:37.127Z,98185.70
2019-03-04T12:22:05.085Z,98182.16
2019-03-04T12:24:32.983Z,98175.32
2019-03-04T12:27:00.954Z,98167.66
2019-03-04T12:29:28.885Z,98151.64
2019-03-04T12:32:25.241Z,98142.27
2019-03-04T12:34:53.083Z,98146.48
2019-03-04T12:37:23.309Z,98120.33
2019-03-04T12:39:51.350Z,98120.33
2019-03-04T12:42:19.109Z,98127.17
2019-03-04T12:44:47.056Z,98110.58
2019-03-04T12:47:16.405Z,98112.73
2019-03-04T12:49:44.562Z,98124.86
2019-03-04T12:52:12.343Z,98102.59
2019-03-04T12:54:40.322Z,98077.35
2019-03-04T12:57:08.234Z,98077.35
2019-03-04T12:59:36.284Z,98083.44
2019-03-04T13:02:04.166Z,98083.44
2019-03-04T13:04:32.144Z,98063.00
2019-03-04T13:07:00.154Z,98061.45
2019-03-04T13:09:28.201Z,98063.64
2019-03-04T13:11:57.102Z,98052.32
2019-03-04T13:14:25.883Z,98048.39
2019-03-04T13:16:55.253Z,98048.49
2019-03-04T13:19:23.109Z,98050.33
2019-03-04T13:21:51.119Z,98057.30
2019-03-04T13:24:19.072Z,98050.19
2019-03-04T13:26:47.507Z,98050.83
2019-03-04T13:29:15.535Z,98048.48
2019-03-04T13:31:44.200Z,98050.64
2019-03-04T13:34:12.182Z,98043.72
2019-03-04T13:36:40.045Z,98037.90
2019-03-04T13:39:10.532Z,98038.44
2019-03-04T13:41:38.591Z,98019.68
2019-03-04T13:44:07.385Z,98028.94
2019-03-04T13:46:35.424Z,98035.78
2019-03-04T13:49:03.553Z,98034.95
2019-03-04T13:51:31.809Z,98027.70
2019-03-04T13:54:00.408Z,98014.34
2019-03-04T13:56:28.345Z,98017.38
2019-03-04T13:58:56.120Z,98023.22
2019-03-04T14:01:24.600Z,98011.01
2019-03-04T14:03:52.650Z,98020.74
2019-03-04T14:06:20.604Z,98035.53
2019-03-04T14:08:48.774Z,98035.53
2019-03-04T14:11:16.748Z,98058.59
2019-03-04T14:13:44.632Z,98050.70
2019-03-04T14:16:13.058Z,98037.63
2019-03-04T14:18:40.866Z,98035.44
2019-03-04T14:21:08.841Z,98025.58
2019-03-04T14:23:36.729Z,98017.98
2019-03-04T14:26:05.279Z,98006.05
2019-03-04T14:28:33.089Z,97992.92
2019-03-04T14:31:00.957Z,97994.63
2019-03-04T14:33:28.959Z,97976.17
2019-03-04T14:35:56.934Z,97983.52
2019-03-04T14:38:24.806Z,98007.38
2019-03-04T14:40:52.636Z,97996.97
2019-03-04T14:43:21.455Z,97990.25
2019-03-04T14:45:49.303Z,97998.21
2019-03-04T14:48:18.077Z,97975.34
2019-03-04T14:50:47.264Z,97976.34
2019-03-04T14:53:15.241Z,98013.97
2019-03-04T14:55:43.055Z,98022.05
2019-03-04T14:58:10.927Z,97991.95
2019-03-04T15:00:40.314Z,98009.11
2019-03-04T15:03:08.302Z,98013.56
2019-03-04T15:05:36.393Z,98021.48
2019-03-04T15:08:04.458Z,98013.38
2019-03-04T15:10:33.679Z,98020.91
2019-03-04T15:13:12.438Z,98034.80
2019-03-04T15:15:40.545Z,98024.27
2019-03-04T15:18:08.500Z,98010.33
2019-03-04T15:20:36.556Z,98015.97
2019-03-04T15:23:04.524Z,98009.22
2019-03-04T15:25:32.710Z,98026.66
2019-03-04T15:28:12.546Z,98045.51
2019-03-04T15:30:41.588Z,98014.48
2019-03-04T15:33:17.415Z,98011.72
2019-03-04T15:35:39.343Z,98017.78
2019-03-04T15:38:07.319Z,98011.91
2019-03-04T15:40:35.182Z,97997.92
2019-03-04T15:43:03.354Z,98017.20
2019-03-04T15:45:33.534Z,98023.88
2019-03-04T15:48:01.345Z,98005.71
2019-03-04T15:50:29.323Z,98005.71
2019-03-04T15:52:57.393Z,98005.66
2019-03-04T15:55:25.903Z,98016.25
2019-03-04T15:57:53.969Z,98003.15
2019-03-04T16:00:22.076Z,98000.52
2019-03-04T16:02:50.095Z,98016.45
2019-03-04T16:05:18.176Z,97990.41
2019-03-04T16:07:46.191Z,98036.73
2019-03-04T16:10:15.450Z,98011.48
2019-03-04T16:12:43.788Z,98013.30
2019-03-04T16:15:20.301Z,97988.99
2019-03-04T16:17:48.361Z,97994.88
2019-03-04T16:20:16.794Z,98019.30
2019-03-04T16:22:44.876Z,98012.80
2019-03-04T16:25:12.999Z,98016.20
2019-03-04T16:27:41.213Z,98003.32
2019-03-04T16:30:12.763Z,97994.34
2019-03-04T16:32:40.945Z,97994.34
2019-03-04T16:35:08.978Z,97983.56
2019-03-04T16:37:37.039Z,97993.67
2019-03-04T16:40:05.992Z,97997.28
2019-03-04T16:42:33.973Z,97996.20
2019-03-04T16:45:01.935Z,98010.19
2019-03-04T16:47:29.863Z,98016.22
2019-03-04T16:49:57.815Z,98000.60
2019-03-04T16:52:28.768Z,97986.75
2019-03-04T16:54:57.453Z,98002.72
2019-03-04T16:57:25.574Z,98002.72
2019-03-04T16:59:53.484Z,97992.23
2019-03-04T17:02:21.513Z,97988.29
2019-03-04T17:04:49.513Z,97986.78
2019-03-04T17:07:17.459Z,97960.58
2019-03-04T17:09:45.368Z,97961.44
2019-03-04T17:12:13.673Z,97961.44
2019-03-04T17:14:41.653Z,97977.91
2019-03-04T17:17:11.698Z,97989.03
2019-03-04T17:19:40.508Z,98002.82
2019-03-04T17:22:09.144Z,97989.79
2019-03-04T17:24:42.621Z,97989.79
2019-03-04T17:27:10.611Z,98035.28
2019-03-04T17:29:38.526Z,98040.38
2019-03-04T17:32:07.864Z,98026.05
2019-03-04T17:34:35.853Z,98027.63
2019-03-04T17:37:05.083Z,98028.63
2019-03-04T17:39:33.287Z,98033.83
2019-03-04T17:42:01.109Z,98038.88
2019-03-04T17:44:29.057Z,98048.31
2019-03-04T17:46:56.937Z,98050.28
2019-03-04T17:49:25.012Z,98039.20
2019-03-04T17:51:52.999Z,98044.69
2019-03-04T17:54:21.068Z,98048.52
2019-03-04T17:56:51.023Z,98049.67
2019-03-04T17:59:19.045Z,98044.84
2019-03-04T18:01:48.060Z,98045.54
2019-03-04T18:04:15.968Z,98056.86
2019-03-04T18:06:44.060Z,98050.04
2019-03-04T18:09:12.925Z,98056.27
2019-03-04T18:11:40.739Z,98062.80
2019-03-04T18:14:09.951Z,98072.58
2019-03-04T18:16:37.905Z,98051.97
2019-03-04T18:19:05.951Z,98053.95
2019-03-04T18:21:34.775Z,98046.95
2019-03-04T18:24:02.732Z,98036.65
2019-03-04T18:26:35.803Z,98045.30
2019-03-04T18:29:31.809Z,98031.48
2019-03-04T18:32:49.415Z,98031.48
2019-03-04T18:35:49.377Z,98021.30
2019-03-04T18:38:50.069Z,98034.82
2019-03-04T18:41:55.947Z,98038.61
2019-03-04T18:44:39.542Z,98036.09
2019-03-04T18:47:31.397Z,98038.47
2019-03-04T18:49:59.761Z,98025.45
2019-03-04T18:52:31.279Z,98033.41
2019-03-04T18:54:59.220Z,98030.45
2019-03-04T18:57:27.165Z,98016.86
2019-03-04T18:59:55.087Z,98033.84
2019-03-04T19:02:23.264Z,98033.84
2019-03-04T19:04:52.956Z,98035.03
2019-03-04T19:07:21.101Z,98035.03
2019-03-04T19:09:49.524Z,98035.97
2019-03-04T19:12:20.368Z,98051.27
2019-03-04T19:14:48.274Z,98051.41
2019-03-04T19:17:16.321Z,98036.98
2019-03-04T19:19:44.194Z,98047.13
2019-03-04T19:22:26.357Z,98049.48
2019-03-04T19:24:52.549Z,98049.48
2019-03-04T19:27:20.445Z,98047.41
2019-03-04T19:29:48.349Z,98045.09
2019-03-04T19:32:16.285Z,98062.38
2019-03-04T19:34:44.117Z,98045.28
2019-03-04T19:37:12.200Z,98051.77
2019-03-04T19:39:40.106Z,98044.11
2019-03-04T19:42:08.154Z,98038.27
2019-03-04T19:44:36.032Z,98042.16
2019-03-04T19:47:04.401Z,98042.16
2019-03-04T19:49:32.403Z,98035.52
2019-03-04T19:52:00.476Z,98047.45
2019-03-04T19:54:28.540Z,98047.45
2019-03-04T19:56:56.600Z,98036.09
2019-03-04T19:59:24.592Z,98031.67
2019-03-04T20:01:52.650Z,98041.04
2019-03-04T20:04:20.639Z,98041.04
2019-03-04T20:06:49.543Z,98051.27
2019-03-04T20:09:17.563Z,98051.27
2019-03-04T20:11:45.546Z,98053.00
2019-03-04T20:14:13.462Z,98053.00
2019-03-04T20:16:41.464Z,98051.51
2019-03-04T20:19:09.519Z,98064.85
2019-03-04T20:21:37.494Z,98076.83
2019-03-04T20:24:16.706Z,98070.63
2019-03-04T20:26:44.864Z,98074.43
2019-03-04T20:29:12.896Z,98075.20
2019-03-04T20:31:40.793Z,98075.20
2019-03-04T20:34:08.735Z,98068.34
2019-03-04T20:36:36.617Z,98076.19
2019-03-04T20:39:09.069Z,98080.94
2019-03-04T20:41:36.978Z,98082.59
2019-03-04T20:44:05.645Z,98093.19
2019-03-04T20:46:33.400Z,98093.19
2019-03-04T20:49:01.448Z,98094.97
2019-03-04T20:51:29.327Z,98091.44
2019-03-04T20:53:57.875Z,98091.44
2019-03-04T20:56:26.067Z,98092.84
2019-03-04T20:58:53.992Z,98092.84
2019-03-04T21:01:22.191Z,98087.94
2019-03-04T21:03:50.208Z,98104.24
2019-03-04T21:06:18.213Z,98150.50
2019-03-04T21:08:46.756Z,98171.25
2019-03-04T21:11:14.741Z,98171.25
2019-03-04T21:13:42.770Z,98197.72
2019-03-04T21:16:10.643Z,98184.72
2019-03-04T21:18:38.682Z,98223.07
2019-03-04T21:21:07.432Z,98257.11
2019-03-04T21:23:36.770Z,98260.56
2019-03-04T21:26:17.177Z,98271.81
2019-03-04T21:29:32.804Z,98275.83
2019-03-04T21:32:51.579Z,98276.94
2019-03-04T21:35:58.466Z,98284.29
2019-03-04T21:38:29.142Z,98291.58
2019-03-04T21:41:56.491Z,98298.81
2019-03-04T21:44:57.172Z,98316.64
2019-03-04T21:47:31.663Z,98323.62
2019-03-04T21:49:59.726Z,98321.21
2019-03-04T21:53:01.474Z,98321.14
2019-03-04T21:56:07.809Z,98340.58
2019-03-04T21:58:35.683Z,98352.18
2019-03-04T22:01:15.699Z,98359.28
2019-03-04T22:03:43.664Z,98353.94
2019-03-04T22:06:11.570Z,98364.91
2019-03-04T22:08:40.835Z,98376.20
2019-03-04T22:11:08.745Z,98389.19
2019-03-04T22:13:36.733Z,98383.91
2019-03-04T22:16:04.793Z,98395.22
2019-03-04T22:18:32.855Z,98392.78
2019-03-04T22:21:00.691Z,98404.55
2019-03-04T22:23:29.214Z,98404.64
2019-03-04T22:26:01.847Z,98411.24
2019-03-04T22:28:29.799Z,98415.27
2019-03-04T22:30:57.950Z,98426.46
2019-03-04T22:33:25.886Z,98427.45
2019-03-04T22:35:53.831Z,98433.59
2019-03-04T22:38:21.839Z,98438.80
2019-03-04T22:40:49.909Z,98459.25
2019-03-04T22:43:17.676Z,98451.88
2019-03-04T22:45:45.730Z,98444.52
2019-03-04T22:48:13.606Z,98449.58
2019-03-04T22:50:41.612Z,98449.70
2019-03-04T22:53:09.474Z,98468.23
2019-03-04T22:55:37.935Z,98462.05
2019-03-04T22:58:06.055Z,98471.11
2019-03-04T23:01:33.671Z,98484.55
2019-03-04T23:04:20.641Z,98467.30
2019-03-04T23:06:53.467Z,98476.86
2019-03-04T23:09:21.529Z,98478.96
2019-03-04T23:11:57.110Z,98487.11
2019-03-04T23:14:27.469Z,98478.55
2019-03-04T23:16:55.419Z,98473.88
2019-03-04T23:19:23.268Z,98470.41
2019-03-04T23:21:51.317Z,98472.34
2019-03-04T23:24:19.336Z,98490.02
2019-03-04T23:26:47.435Z,98487.45
2019-03-04T23:29:15.228Z,98488.67
2019-03-04T23:31:43.357Z,98485.61
2019-03-04T23:34:11.251Z,98483.64
2019-03-04T23:36:39.172Z,98502.19
2019-03-04T23:39:07.885Z,98502.28
2019-03-04T23:41:35.865Z,98498.92
2019-03-04T23:44:04.055Z,98510.70
2019-03-04T23:46:31.871Z,98507.94
2019-03-04T23:48:59.661Z,98525.59
2019-03-04T23:51:27.956Z,98529.67
2019-03-04T23:53:55.757Z,98518.23
2019-03-04T23:56:23.771Z,98520.95
2019-03-04T23:58:51.693Z,98524.91
